Time;durP1;ratioP1;P1;durP2;ratioP2;P2;SDS_P1;SDS_P2;PMS_P1;PMS_P2;Temp;Humidity;BMP_temperature;BMP_pressure;BME280_temperature;BME280_humidity;BME280_pressure;Samples;Min_cycle;Max_cycle;Signal;HPM_P1;HPM_P2
2024/04/07 00:00:24;;;;;;;9.60;2.88;;;17.70;99.90;;;;;;5107272;28;20100;-88
2024/04/07 00:02:51;;;;;;;6.97;1.95;;;17.70;99.90;;;;;;5093407;28;20031;-89
2024/04/07 00:05:17;;;;;;;8.73;2.92;;;17.60;99.90;;;;;;5110280;27;20038;-89
2024/04/07 00:07:43;;;;;;;7.72;2.60;;;17.60;99.90;;;;;;5110401;27;20035;-89
2024/04/07 00:10:09;;;;;;;8.13;2.33;;;17.70;99.90;;;;;;5092196;28;20101;-88
2024/04/07 00:12:37;;;;;;;7.63;2.60;;;17.70;99.90;;;;;;5126250;28;20039;-89
2024/04/07 00:15:05;;;;;;;10.07;3.10;;;17.60;99.90;;;;;;5106538;28;20128;-89
2024/04/07 00:17:32;;;;;;;10.40;2.95;;;17.60;99.90;;;;;;5123139;28;20180;-89
2024/04/07 00:19:57;;;;;;;9.90;3.15;;;17.60;99.90;;;;;;5126522;28;20035;-89
2024/04/07 00:22:24;;;;;;;11.18;3.17;;;17.70;99.90;;;;;;5107146;28;20526;-89
2024/04/07 00:24:50;;;;;;;9.15;2.97;;;17.70;99.90;;;;;;5109486;28;20046;-89
2024/04/07 00:27:16;;;;;;;8.52;2.97;;;17.60;99.90;;;;;;5107590;28;20027;-90
2024/04/07 00:29:43;;;;;;;9.43;3.10;;;17.60;99.90;;;;;;5090784;27;20032;-89
2024/04/07 00:32:09;;;;;;;8.73;3.20;;;17.60;99.90;;;;;;5130426;27;20084;-89
2024/04/07 00:34:35;;;;;;;11.32;3.20;;;17.50;99.90;;;;;;5111120;27;20588;-89
2024/04/07 00:37:00;;;;;;;10.63;3.88;;;17.50;99.90;;;;;;5130600;27;20039;-89
2024/04/07 00:39:26;;;;;;;9.98;3.97;;;17.60;99.90;;;;;;5112422;27;20563;-89
2024/04/07 00:41:51;;;;;;;10.73;3.90;;;17.60;99.90;;;;;;5112122;27;20037;-89
2024/04/07 00:44:17;;;;;;;9.98;3.95;;;17.70;99.90;;;;;;5093256;27;20051;-89
2024/04/07 00:46:43;;;;;;;9.32;3.67;;;17.80;99.90;;;;;;5108584;27;20039;-89
2024/04/07 00:49:08;;;;;;;9.93;3.90;;;17.70;99.90;;;;;;5129400;27;20057;-89
2024/04/07 00:51:35;;;;;;;9.43;3.67;;;17.80;99.90;;;;;;5094047;27;20035;-89
2024/04/07 00:54:02;;;;;;;9.43;3.53;;;17.80;99.90;;;;;;5095727;27;20048;-89
2024/04/07 00:56:27;;;;;;;9.13;3.90;;;17.80;99.90;;;;;;5093369;27;20531;-89
2024/04/07 00:58:54;;;;;;;10.52;4.43;;;17.80;99.90;;;;;;5092673;27;20490;-89
2024/04/07 01:01:19;;;;;;;10.80;4.05;;;17.80;99.90;;;;;;5109887;27;20042;-89
2024/04/07 01:03:45;;;;;;;10.02;3.95;;;17.80;99.90;;;;;;5093243;27;20027;-89
2024/04/07 01:06:11;;;;;;;9.85;4.45;;;17.80;99.90;;;;;;5094237;27;20043;-89
2024/04/07 01:08:38;;;;;;;11.00;4.50;;;17.80;99.90;;;;;;5094003;27;20188;-88
2024/04/07 01:11:03;;;;;;;9.65;4.07;;;17.70;99.90;;;;;;5111042;27;20084;-89
2024/04/07 01:13:29;;;;;;;9.43;3.65;;;17.60;99.90;;;;;;5108220;27;20035;-88
2024/04/07 01:15:54;;;;;;;8.65;4.13;;;17.50;99.90;;;;;;5092565;27;20521;-89
2024/04/07 01:18:20;;;;;;;10.38;4.05;;;17.30;99.90;;;;;;5109804;27;20093;-89
2024/04/07 01:20:46;;;;;;;8.90;3.45;;;17.30;99.90;;;;;;5111436;27;20442;-89
2024/04/07 01:23:18;;;;;;;9.75;3.90;;;17.10;99.90;;;;;;5111369;27;20037;-89
2024/04/07 01:25:44;;;;;;;12.38;3.70;;;17.10;99.90;;;;;;5128012;27;20031;-89
2024/04/07 01:28:11;;;;;;;10.20;3.75;;;17.00;99.90;;;;;;5108836;27;20410;-89
2024/04/07 01:30:37;;;;;;;10.45;3.38;;;17.00;99.90;;;;;;5091995;27;20713;-89
2024/04/07 01:33:03;;;;;;;8.60;2.78;;;17.00;99.90;;;;;;5110026;27;20092;-90
2024/04/07 01:35:29;;;;;;;9.15;3.90;;;17.00;99.90;;;;;;5110797;27;20039;-89
2024/04/07 01:37:55;;;;;;;10.32;3.65;;;17.00;99.90;;;;;;5093971;27;20042;-89
2024/04/07 01:40:21;;;;;;;9.18;2.35;;;17.10;99.90;;;;;;5127256;27;20042;-89
2024/04/07 01:42:47;;;;;;;10.55;3.42;;;17.00;99.90;;;;;;5107130;27;20114;-88
2024/04/07 01:45:13;;;;;;;10.80;2.70;;;17.00;99.90;;;;;;5127330;27;20418;-89
2024/04/07 01:47:39;;;;;;;9.02;3.55;;;17.10;99.90;;;;;;5110041;27;20130;-89
2024/04/07 01:50:05;;;;;;;10.95;3.85;;;17.10;99.90;;;;;;5129074;27;20468;-89
2024/04/07 01:52:31;;;;;;;9.57;3.55;;;17.10;99.90;;;;;;5110793;27;20050;-89
2024/04/07 01:54:56;;;;;;;10.20;3.75;;;17.10;99.90;;;;;;5127820;27;20031;-90
2024/04/07 01:57:22;;;;;;;8.98;3.70;;;17.10;99.90;;;;;;5106861;27;20027;-89
2024/04/07 01:59:48;;;;;;;12.95;3.70;;;17.10;99.90;;;;;;5092495;27;20519;-89
2024/04/07 02:02:16;;;;;;;9.63;2.85;;;17.10;99.90;;;;;;5093912;27;20031;-89
2024/04/07 02:04:42;;;;;;;9.25;3.28;;;17.00;99.90;;;;;;5129870;27;20039;-89
2024/04/07 02:07:08;;;;;;;12.77;4.00;;;17.00;99.90;;;;;;5111177;27;20395;-89
2024/04/07 02:09:33;;;;;;;6.25;2.13;;;17.00;99.90;;;;;;5096373;27;20086;-89
2024/04/07 02:11:59;;;;;;;10.38;2.53;;;17.00;99.90;;;;;;5090648;27;20103;-90
2024/04/07 02:14:25;;;;;;;12.18;2.90;;;17.00;99.90;;;;;;5126113;27;20133;-89
2024/04/07 02:16:51;;;;;;;8.23;2.42;;;17.00;99.90;;;;;;5110288;27;20118;-89
2024/04/07 02:19:16;;;;;;;8.18;1.75;;;17.00;99.90;;;;;;5093556;27;20031;-89
2024/04/07 02:21:42;;;;;;;7.72;2.30;;;17.00;99.90;;;;;;5109949;27;20538;-89
2024/04/07 02:24:08;;;;;;;12.27;2.53;;;17.00;99.90;;;;;;5108331;27;20531;-89
2024/04/07 02:26:34;;;;;;;10.50;2.40;;;17.00;99.90;;;;;;5123339;27;20030;-89
2024/04/07 02:28:59;;;;;;;8.93;2.67;;;17.00;99.90;;;;;;5092342;27;20035;-89
2024/04/07 02:31:26;;;;;;;8.90;1.55;;;17.00;99.90;;;;;;5108639;27;20065;-89
2024/04/07 02:33:52;;;;;;;8.38;2.30;;;16.90;99.90;;;;;;5109859;27;20031;-89
2024/04/07 02:36:18;;;;;;;9.10;2.60;;;16.90;99.90;;;;;;5128220;27;20100;-88
2024/04/07 02:38:44;;;;;;;12.43;2.35;;;16.80;99.90;;;;;;5125759;27;20028;-89
2024/04/07 02:41:10;;;;;;;7.97;2.60;;;16.80;99.90;;;;;;5127792;27;20034;-89
2024/04/07 02:43:35;;;;;;;9.38;2.60;;;16.70;99.90;;;;;;5090319;27;20027;-89
2024/04/07 02:48:45;;;;;;;9.05;2.42;;;16.60;99.90;;;;;;5109143;27;20038;-89
2024/04/07 02:51:11;;;;;;;9.60;2.33;;;16.60;99.90;;;;;;5127764;27;20465;-89
2024/04/07 02:53:38;;;;;;;5.78;1.27;;;16.50;99.90;;;;;;5089824;28;20044;-89
2024/04/07 02:56:05;;;;;;;12.60;2.55;;;16.40;99.90;;;;;;5089193;27;20056;-89
2024/04/07 02:58:30;;;;;;;9.90;2.30;;;16.40;99.90;;;;;;5109246;27;20054;-89
2024/04/07 03:01:05;;;;;;;11.57;2.83;;;16.40;99.90;;;;;;5127029;27;20035;-89
2024/04/07 03:03:31;;;;;;;10.00;2.30;;;16.30;99.90;;;;;;5127408;27;20039;-89
2024/04/07 03:05:58;;;;;;;11.43;1.98;;;16.30;99.90;;;;;;5108707;27;20046;-89
2024/04/07 03:08:23;;;;;;;10.65;2.25;;;16.20;99.90;;;;;;5088371;27;20602;-89
2024/04/07 03:10:59;;;;;;;8.98;2.50;;;16.10;99.90;;;;;;5087048;28;20142;-89
2024/04/07 03:13:25;;;;;;;6.03;1.52;;;16.20;99.90;;;;;;5106999;27;20039;-88
2024/04/07 03:15:51;;;;;;;11.18;3.05;;;16.10;99.90;;;;;;5108565;27;20126;-89
2024/04/07 03:18:17;;;;;;;11.93;2.47;;;16.00;99.90;;;;;;5108893;27;20080;-89
2024/04/07 03:20:42;;;;;;;11.45;2.65;;;16.00;99.90;;;;;;5107304;28;20554;-88
2024/04/07 03:23:08;;;;;;;4.82;1.42;;;16.00;99.90;;;;;;5089887;27;20047;-88
2024/04/07 03:25:33;;;;;;;8.60;2.47;;;16.00;99.90;;;;;;5106208;27;20502;-89
2024/04/07 03:27:59;;;;;;;8.75;2.25;;;16.00;99.90;;;;;;5108154;27;20092;-89
2024/04/07 03:30:25;;;;;;;9.90;2.10;;;16.00;99.90;;;;;;5107788;28;20035;-89
2024/04/07 03:32:51;;;;;;;4.75;1.48;;;16.00;99.90;;;;;;5109371;28;20043;-89
2024/04/07 03:35:16;;;;;;;8.75;2.28;;;15.90;99.90;;;;;;5108445;28;20051;-88
2024/04/07 03:37:42;;;;;;;6.93;1.58;;;15.90;99.90;;;;;;5105345;28;20509;-88
2024/04/07 03:40:08;;;;;;;11.55;2.63;;;15.80;99.90;;;;;;5105578;28;20089;-89
2024/04/07 03:42:34;;;;;;;10.18;2.63;;;15.80;99.90;;;;;;5108416;28;20100;-89
2024/04/07 03:45:00;;;;;;;7.22;1.65;;;15.80;99.90;;;;;;5109464;28;20051;-89
2024/04/07 03:47:25;;;;;;;10.23;2.38;;;15.80;99.90;;;;;;5091531;28;20474;-89
2024/04/07 03:49:51;;;;;;;7.45;2.00;;;15.70;99.90;;;;;;5126233;28;20031;-88
2024/04/07 03:52:17;;;;;;;8.70;1.40;;;15.70;99.90;;;;;;5089251;28;20620;-88
2024/04/07 03:54:43;;;;;;;3.33;0.80;;;15.70;99.90;;;;;;5088590;28;20091;-89
2024/04/07 03:57:08;;;;;;;8.80;2.13;;;15.60;99.90;;;;;;5126273;28;20114;-89
2024/04/07 03:59:34;;;;;;;9.13;2.38;;;15.70;99.90;;;;;;5090738;28;20039;-88
2024/04/07 04:02:03;;;;;;;10.90;2.60;;;15.80;99.90;;;;;;5127605;27;20402;-89
2024/04/07 04:04:29;;;;;;;5.55;1.35;;;15.80;99.90;;;;;;5095846;27;20046;-88
2024/04/07 04:06:54;;;;;;;7.00;1.67;;;15.70;99.90;;;;;;5134427;27;20035;-89
2024/04/07 04:09:21;;;;;;;4.35;1.10;;;15.70;99.90;;;;;;5117168;27;20042;-88
2024/04/07 04:11:46;;;;;;;11.23;2.85;;;15.60;99.90;;;;;;5112484;27;20542;-88
2024/04/07 04:14:12;;;;;;;8.43;2.03;;;15.70;99.90;;;;;;5132030;27;20126;-88
2024/04/07 04:16:37;;;;;;;8.63;1.90;;;15.70;99.90;;;;;;5094639;27;20440;-89
2024/04/07 04:19:03;;;;;;;8.07;2.33;;;15.80;99.90;;;;;;5112117;27;20035;-88
2024/04/07 04:21:29;;;;;;;8.80;2.03;;;15.80;99.90;;;;;;5109076;27;20070;-88
2024/04/07 04:23:55;;;;;;;8.00;2.15;;;15.80;99.90;;;;;;5110397;27;20043;-88
2024/04/07 04:26:20;;;;;;;3.90;0.98;;;15.80;99.90;;;;;;5111315;27;20034;-88
2024/04/07 04:28:46;;;;;;;5.53;1.63;;;15.80;99.90;;;;;;5111405;27;20027;-89
2024/04/07 04:31:12;;;;;;;7.85;1.67;;;15.70;99.90;;;;;;5131296;27;20467;-89
2024/04/07 04:33:37;;;;;;;6.35;1.60;;;15.70;99.90;;;;;;5093601;27;20044;-88
2024/04/07 04:36:11;;;;;;;7.43;1.90;;;15.80;99.90;;;;;;5092601;27;21489;-88
2024/04/07 04:38:37;;;;;;;5.32;1.38;;;15.80;99.90;;;;;;5108796;27;20104;-89
2024/04/07 04:41:03;;;;;;;2.60;0.77;;;15.80;99.90;;;;;;5130754;27;20031;-88
2024/04/07 04:43:28;;;;;;;6.22;1.40;;;15.80;99.90;;;;;;5130912;27;20031;-89
2024/04/07 04:46:06;;;;;;;4.82;1.50;;;15.70;99.90;;;;;;5113143;27;20035;-88
2024/04/07 04:48:36;;;;;;;5.65;1.33;;;15.80;99.90;;;;;;5110372;27;20035;-89
2024/04/07 04:51:02;;;;;;;5.82;1.40;;;15.80;99.90;;;;;;5109493;27;20045;-89
2024/04/07 04:53:28;;;;;;;5.00;1.05;;;15.70;99.90;;;;;;5110068;27;20043;-88
2024/04/07 04:56:02;;;;;;;5.57;1.08;;;15.70;99.90;;;;;;5111342;27;20065;-89
2024/04/07 04:58:32;;;;;;;4.90;1.02;;;15.70;99.90;;;;;;5112364;27;20035;-88
2024/04/07 05:00:58;;;;;;;4.45;1.08;;;15.70;99.90;;;;;;5095712;27;20034;-88
2024/04/07 05:03:25;;;;;;;5.95;1.15;;;15.80;99.90;;;;;;5111630;27;20035;-88
2024/04/07 05:05:54;;;;;;;5.00;1.13;;;15.80;99.90;;;;;;5127823;27;20043;-89
2024/04/07 05:08:20;;;;;;;1.55;0.50;;;15.80;99.90;;;;;;5108959;27;20031;-88
2024/04/07 05:10:45;;;;;;;4.78;1.00;;;15.70;99.90;;;;;;5111469;27;20073;-88
2024/04/07 05:13:11;;;;;;;3.97;0.88;;;15.70;99.90;;;;;;5094954;27;20043;-88
2024/04/07 05:15:36;;;;;;;3.05;1.10;;;15.70;99.90;;;;;;5110680;28;20027;-89
2024/04/07 05:18:02;;;;;;;2.63;0.90;;;15.70;99.90;;;;;;5128551;27;20042;-89
2024/04/07 05:20:28;;;;;;;4.80;0.70;;;15.80;99.90;;;;;;5089964;27;20043;-89
2024/04/07 05:22:54;;;;;;;3.47;1.10;;;15.70;99.90;;;;;;5111097;27;20035;-89
2024/04/07 05:25:19;;;;;;;4.18;1.00;;;15.70;99.90;;;;;;5109874;27;20418;-89
2024/04/07 05:27:45;;;;;;;2.67;0.90;;;15.70;99.90;;;;;;5129349;27;20032;-89
2024/04/07 05:30:11;;;;;;;3.50;0.77;;;15.70;99.90;;;;;;5111265;27;21255;-88
2024/04/07 05:32:37;;;;;;;8.02;1.23;;;15.70;99.90;;;;;;5109238;27;20027;-89
2024/04/07 05:35:04;;;;;;;3.80;0.75;;;15.60;99.90;;;;;;5108414;27;20046;-89
2024/04/07 05:37:33;;;;;;;3.22;0.80;;;15.60;99.90;;;;;;5091223;27;20118;-89
2024/04/07 05:39:59;;;;;;;6.15;1.05;;;15.60;99.90;;;;;;5110033;27;20171;-89
2024/04/07 05:42:28;;;;;;;2.90;0.82;;;15.60;99.90;;;;;;5094839;27;20494;-89
2024/04/07 05:44:54;;;;;;;4.28;1.00;;;15.60;99.90;;;;;;5092754;27;20031;-89
2024/04/07 05:47:21;;;;;;;2.22;0.45;;;15.60;99.90;;;;;;5109862;27;20741;-89
2024/04/07 05:49:46;;;;;;;3.35;0.80;;;15.60;99.90;;;;;;5106385;27;20035;-89
2024/04/07 05:52:12;;;;;;;4.00;0.95;;;15.50;99.90;;;;;;5110890;27;20035;-90
2024/04/07 05:54:37;;;;;;;3.20;0.90;;;15.60;99.90;;;;;;5109683;27;20116;-89
2024/04/07 05:57:03;;;;;;;5.65;1.02;;;15.60;99.90;;;;;;5091470;27;20034;-89
2024/04/07 05:59:28;;;;;;;2.38;0.82;;;15.70;99.90;;;;;;5108800;27;20125;-89
2024/04/07 06:01:54;;;;;;;5.38;1.00;;;15.70;99.90;;;;;;5094835;27;20039;-89
2024/04/07 06:04:20;;;;;;;2.88;0.80;;;15.70;99.90;;;;;;5096023;27;20520;-89
2024/04/07 06:06:47;;;;;;;1.02;0.35;;;15.70;99.90;;;;;;5094494;27;20046;-89
2024/04/07 06:09:14;;;;;;;2.40;0.80;;;15.70;99.90;;;;;;5111831;27;20031;-89
2024/04/07 06:11:39;;;;;;;2.92;0.80;;;15.70;99.90;;;;;;5094008;27;20115;-89
2024/04/07 06:14:05;;;;;;;1.88;0.35;;;15.80;99.90;;;;;;5109674;27;20450;-89
2024/04/07 06:16:31;;;;;;;3.42;0.88;;;15.80;99.90;;;;;;5105758;27;20595;-89
2024/04/07 06:18:56;;;;;;;5.80;1.23;;;15.80;99.90;;;;;;5107407;27;20039;-89
2024/04/07 06:21:22;;;;;;;0.57;0.40;;;15.80;99.90;;;;;;5091773;27;20039;-89
2024/04/07 06:23:48;;;;;;;3.10;0.75;;;15.80;99.90;;;;;;5109582;27;20035;-89
2024/04/07 06:26:14;;;;;;;3.22;0.80;;;15.80;99.90;;;;;;5092230;27;20107;-89
2024/04/07 06:28:40;;;;;;;4.20;1.00;;;15.80;99.90;;;;;;5091546;27;20031;-89
2024/04/07 06:31:05;;;;;;;2.10;0.60;;;15.80;99.90;;;;;;5108268;27;20043;-89
2024/04/07 06:33:31;;;;;;;3.65;0.50;;;15.80;99.90;;;;;;5106671;27;20050;-89
2024/04/07 06:35:58;;;;;;;0.90;0.45;;;15.80;99.90;;;;;;5109644;27;20062;-89
2024/04/07 06:38:24;;;;;;;4.32;1.00;;;15.80;99.90;;;;;;5091979;27;20039;-89
2024/04/07 06:40:49;;;;;;;4.10;0.90;;;15.80;99.90;;;;;;5128892;27;20405;-88
2024/04/07 06:43:15;;;;;;;5.43;1.10;;;15.90;99.90;;;;;;5092763;27;20027;-89
2024/04/07 06:45:41;;;;;;;1.88;0.52;;;15.90;99.90;;;;;;5106198;27;20066;-90
2024/04/07 06:48:07;;;;;;;3.63;0.88;;;15.90;99.90;;;;;;5124762;27;20059;-89
2024/04/07 06:50:33;;;;;;;0.60;0.25;;;16.00;99.90;;;;;;5109579;27;20439;-89
2024/04/07 06:52:58;;;;;;;1.80;0.55;;;16.00;99.90;;;;;;5110293;27;20035;-89
2024/04/07 06:55:24;;;;;;;6.43;1.10;;;16.00;99.90;;;;;;5110674;27;20038;-90
2024/04/07 06:57:50;;;;;;;6.05;1.08;;;16.10;99.90;;;;;;5090361;27;20113;-90
2024/04/07 07:00:15;;;;;;;3.72;0.30;;;16.20;99.90;;;;;;5090881;27;20597;-90
2024/04/07 07:02:41;;;;;;;4.45;1.02;;;16.10;99.90;;;;;;5106621;27;20043;-89
2024/04/07 07:05:09;;;;;;;5.32;1.10;;;16.20;99.90;;;;;;5107128;27;20059;-89
2024/04/07 07:07:35;;;;;;;4.05;0.90;;;16.10;99.90;;;;;;5089911;27;20043;-89
2024/04/07 07:10:01;;;;;;;3.10;0.60;;;16.10;99.90;;;;;;5109602;27;20379;-90
2024/04/07 07:12:27;;;;;;;1.90;0.32;;;16.10;99.90;;;;;;5090978;27;20043;-90
2024/04/07 07:14:52;;;;;;;6.90;0.73;;;16.10;99.90;;;;;;5107468;27;20414;-90
2024/04/07 07:17:18;;;;;;;2.78;0.75;;;16.10;99.90;;;;;;5104877;27;20039;-90
2024/04/07 07:19:44;;;;;;;3.20;1.00;;;16.20;99.90;;;;;;5108608;27;20512;-89
2024/04/07 07:22:09;;;;;;;3.78;0.88;;;16.30;99.90;;;;;;5110215;27;20033;-89
2024/04/07 07:24:35;;;;;;;3.88;0.82;;;16.40;99.90;;;;;;5093301;27;20072;-89
2024/04/07 07:27:01;;;;;;;3.60;0.47;;;16.40;99.90;;;;;;5091510;27;20529;-90
2024/04/07 07:29:26;;;;;;;1.85;0.57;;;16.40;99.90;;;;;;5106019;27;20028;-90
2024/04/07 07:31:56;;;;;;;4.40;1.10;;;16.50;99.90;;;;;;5126205;27;20042;-89
2024/04/07 07:34:23;;;;;;;5.95;1.00;;;16.50;99.90;;;;;;5109132;28;20049;-90
2024/04/07 07:36:48;;;;;;;5.90;1.20;;;16.60;99.90;;;;;;5108761;28;20077;-84
2024/04/07 07:39:14;;;;;;;1.92;0.65;;;16.70;99.90;;;;;;5109871;27;20161;-85
2024/04/07 07:41:39;;;;;;;5.65;1.38;;;16.60;99.90;;;;;;5112340;27;20044;-91
2024/04/07 07:44:05;;;;;;;6.35;1.27;;;16.70;99.90;;;;;;5094778;27;20035;-92
2024/04/07 07:46:31;;;;;;;4.50;1.00;;;16.80;99.90;;;;;;5091761;27;20820;-91
2024/04/07 07:48:57;;;;;;;5.93;1.20;;;16.80;99.90;;;;;;5112127;27;20030;-91
2024/04/07 07:51:23;;;;;;;6.45;1.30;;;16.90;99.90;;;;;;5131972;27;20439;-92
2024/04/07 07:53:49;;;;;;;1.80;0.50;;;16.90;99.90;;;;;;5114080;27;20057;-93
2024/04/07 07:56:15;;;;;;;4.68;1.10;;;16.90;99.90;;;;;;5095449;27;20490;-92
2024/04/07 07:58:40;;;;;;;5.63;1.20;;;16.90;99.90;;;;;;5109416;27;20096;-92
2024/04/07 08:01:07;;;;;;;3.20;0.80;;;16.90;99.90;;;;;;5112352;27;20042;-91
2024/04/07 08:03:35;;;;;;;5.65;1.10;;;16.90;99.90;;;;;;5095031;27;20141;-91
2024/04/07 08:06:00;;;;;;;6.20;1.38;;;16.90;99.90;;;;;;5112709;27;20513;-91
2024/04/07 08:08:26;;;;;;;5.90;0.80;;;17.00;99.90;;;;;;5113069;27;20037;-91
2024/04/07 08:10:52;;;;;;;5.20;1.15;;;17.00;99.90;;;;;;5111471;27;20459;-91
2024/04/07 08:13:18;;;;;;;5.07;1.20;;;17.10;99.90;;;;;;5093145;27;20035;-91
2024/04/07 08:15:44;;;;;;;6.47;1.15;;;17.00;99.90;;;;;;5092719;27;20057;-91
2024/04/07 08:18:11;;;;;;;4.18;1.15;;;17.10;99.90;;;;;;5130391;27;20039;-92
2024/04/07 08:20:37;;;;;;;5.43;1.02;;;17.10;99.90;;;;;;5113239;27;20043;-91
2024/04/07 08:23:03;;;;;;;5.22;1.30;;;17.10;99.90;;;;;;5096733;27;20080;-91
2024/04/07 08:25:29;;;;;;;3.65;1.05;;;17.10;99.90;;;;;;5110928;27;20035;-92
2024/04/07 08:27:54;;;;;;;4.78;0.70;;;17.20;99.90;;;;;;5110187;27;20490;-91
2024/04/07 08:30:20;;;;;;;4.70;1.10;;;17.30;99.90;;;;;;5110716;27;20087;-91
2024/04/07 08:32:46;;;;;;;5.82;1.20;;;17.30;99.90;;;;;;5127595;27;20074;-91
2024/04/07 08:35:12;;;;;;;6.10;1.10;;;17.40;99.90;;;;;;5095697;27;20135;-91
2024/04/07 08:37:41;;;;;;;4.78;1.02;;;17.50;99.90;;;;;;5111641;27;20071;-92
2024/04/07 08:40:07;;;;;;;5.43;1.40;;;17.50;99.90;;;;;;5112190;27;20567;-92
2024/04/07 08:42:33;;;;;;;3.80;0.90;;;17.60;99.90;;;;;;5108759;27;20104;-92
2024/04/07 08:45:06;;;;;;;2.75;0.90;;;17.70;99.90;;;;;;5110554;27;20064;-91
2024/04/07 08:47:33;;;;;;;;;;;17.80;99.90;;;;;;5130211;27;20225;-91
2024/04/07 08:49:59;;;;;;;5.03;1.17;;;18.00;99.90;;;;;;5112104;27;20397;-92
2024/04/07 08:52:27;;;;;;;5.30;1.20;;;18.00;99.90;;;;;;5112526;27;20074;-92
2024/04/07 08:54:54;;;;;;;4.05;1.05;;;18.00;99.90;;;;;;5110986;27;20413;-92
2024/04/07 08:57:21;;;;;;;4.13;1.00;;;18.00;99.90;;;;;;5091761;27;20035;-91
2024/04/07 08:59:48;;;;;;;6.60;1.20;;;18.00;99.90;;;;;;5094044;27;20483;-91
2024/04/07 09:02:15;;;;;;;4.13;1.13;;;17.90;99.90;;;;;;5113071;27;20122;-92
2024/04/07 09:04:41;;;;;;;5.47;1.08;;;17.90;99.90;;;;;;5132530;27;20490;-91
2024/04/07 09:07:07;;;;;;;6.32;1.30;;;17.80;99.90;;;;;;5112919;27;20087;-92
2024/04/07 09:09:33;;;;;;;4.50;1.25;;;17.80;99.90;;;;;;5131290;27;20031;-93
2024/04/07 09:12:00;;;;;;;5.82;1.35;;;17.80;99.90;;;;;;5092537;27;20486;-91
2024/04/07 09:14:26;;;;;;;5.65;1.17;;;17.90;99.90;;;;;;5127554;27;20033;-91
2024/04/07 09:17:06;;;;;;;5.90;1.27;;;18.00;99.90;;;;;;5110498;27;20674;-92
2024/04/07 09:19:33;;;;;;;5.85;1.20;;;18.10;99.90;;;;;;5094049;27;20138;-93
2024/04/07 09:21:58;;;;;;;5.45;1.20;;;18.10;99.90;;;;;;5111695;27;20027;-91
2024/04/07 09:24:25;;;;;;;6.35;1.20;;;18.20;99.90;;;;;;5128157;27;20043;-92
2024/04/07 09:26:52;;;;;;;5.65;1.45;;;18.20;99.90;;;;;;5107460;27;20486;-91
2024/04/07 09:29:17;;;;;;;7.28;1.58;;;18.30;99.90;;;;;;5111310;27;20058;-91
2024/04/07 09:31:43;;;;;;;6.05;1.20;;;18.40;99.90;;;;;;5110464;27;20122;-92
2024/04/07 09:34:10;;;;;;;6.15;1.33;;;18.40;99.10;;;;;;5112125;27;20046;-92
2024/04/07 09:36:36;;;;;;;4.30;1.20;;;18.50;99.30;;;;;;5110137;27;20035;-91
2024/04/07 09:39:03;;;;;;;5.47;0.80;;;18.30;96.50;;;;;;5091828;27;20031;-92
2024/04/07 09:41:30;;;;;;;3.72;1.05;;;18.30;98.30;;;;;;5091835;27;20054;-91
2024/04/07 09:43:56;;;;;;;7.30;1.48;;;18.30;99.90;;;;;;5094053;27;20034;-91
2024/04/07 09:46:22;;;;;;;5.93;1.40;;;18.20;99.30;;;;;;5128782;27;20027;-92
2024/04/07 09:48:50;;;;;;;7.65;1.40;;;18.00;99.90;;;;;;5111459;27;20027;-92
2024/04/07 09:51:21;;;;;;;3.38;0.75;;;17.90;99.70;;;;;;5095123;27;20050;-92
2024/04/07 09:53:56;;;;;;;5.40;1.15;;;17.70;99.90;;;;;;5092458;27;20032;-92
2024/04/07 09:56:31;;;;;;;3.00;0.70;;;17.70;99.90;;;;;;5107244;27;20042;-92
2024/04/07 09:58:59;;;;;;;4.75;1.08;;;17.60;99.90;;;;;;5092813;27;20118;-92
2024/04/07 10:01:25;;;;;;;2.65;0.77;;;17.70;99.90;;;;;;5110783;27;20590;-91
2024/04/07 10:03:52;;;;;;;4.95;1.27;;;17.80;99.90;;;;;;5094046;27;20027;-92
2024/04/07 10:06:19;;;;;;;6.70;1.25;;;17.90;99.90;;;;;;5109741;27;20627;-92
2024/04/07 10:08:45;;;;;;;5.78;1.25;;;17.90;99.90;;;;;;5090233;27;20098;-91
2024/04/07 10:11:18;;;;;;;4.65;1.08;;;17.90;99.90;;;;;;5110695;27;20634;-92
2024/04/07 10:13:44;;;;;;;4.05;1.10;;;17.90;99.00;;;;;;5130104;27;20418;-91
2024/04/07 10:16:10;;;;;;;5.57;1.13;;;17.90;99.90;;;;;;5093596;27;20031;-93
2024/04/07 10:18:45;;;;;;;7.90;1.35;;;17.80;99.90;;;;;;5111129;27;20036;-91
2024/04/07 10:21:11;;;;;;;7.60;1.40;;;17.80;99.90;;;;;;5109241;27;20050;-91
2024/04/07 10:23:38;;;;;;;4.95;1.00;;;17.90;99.90;;;;;;5108358;27;20031;-91
2024/04/07 10:26:06;;;;;;;3.90;0.80;;;18.00;99.90;;;;;;5127344;27;20068;-92
2024/04/07 10:28:55;;;;;;;6.47;1.13;;;18.20;99.90;;;;;;5109522;27;20077;-91
2024/04/07 10:31:26;;;;;;;7.30;1.20;;;18.30;99.90;;;;;;5110849;27;20100;-91
2024/04/07 10:33:53;;;;;;;5.30;1.00;;;18.40;99.90;;;;;;5093490;27;20031;-91
2024/04/07 10:36:20;;;;;;;8.85;1.40;;;18.40;99.90;;;;;;5108095;27;20039;-91
2024/04/07 10:38:56;;;;;;;6.28;1.20;;;18.40;99.90;;;;;;5124062;27;20089;-92
2024/04/07 10:41:33;;;;;;;5.90;1.40;;;18.60;99.90;;;;;;5093214;27;20066;-92
2024/04/07 10:44:01;;;;;;;5.63;1.33;;;18.70;99.90;;;;;;5092307;27;20027;-93
2024/04/07 10:46:29;;;;;;;5.35;1.08;;;18.90;99.90;;;;;;5093490;27;20034;-93
2024/04/07 10:48:57;;;;;;;4.57;0.98;;;18.90;94.20;;;;;;5127728;27;20038;-92
2024/04/07 10:51:23;;;;;;;3.85;0.98;;;18.80;93.10;;;;;;5107857;27;20035;-92
2024/04/07 10:53:59;;;;;;;5.65;1.10;;;18.80;93.80;;;;;;5107862;27;20032;-92
2024/04/07 10:56:26;;;;;;;5.18;1.20;;;18.80;93.00;;;;;;5126792;27;20042;-92
2024/04/07 10:58:52;;;;;;;5.15;1.08;;;19.00;93.50;;;;;;5109833;27;20118;-91
2024/04/07 11:01:18;;;;;;;5.53;1.13;;;19.10;93.30;;;;;;5093852;27;20154;-92
2024/04/07 11:03:45;;;;;;;4.20;1.13;;;19.20;93.90;;;;;;5108718;27;20565;-92
2024/04/07 11:06:13;;;;;;;5.63;1.10;;;19.30;91.50;;;;;;5090991;27;20075;-92
2024/04/07 11:08:39;;;;;;;4.28;1.00;;;19.50;91.40;;;;;;5105622;27;20462;-92
2024/04/07 11:11:05;;;;;;;4.32;1.10;;;19.50;87.40;;;;;;5108562;27;20452;-92
2024/04/07 11:13:31;;;;;;;5.97;1.20;;;19.50;90.80;;;;;;5106890;28;20034;-91
2024/04/07 11:15:56;;;;;;;6.32;1.52;;;19.70;92.50;;;;;;5127046;27;20489;-92
2024/04/07 11:18:23;;;;;;;7.03;1.05;;;19.70;85.70;;;;;;5108573;27;20031;-91
2024/04/07 11:20:49;;;;;;;5.88;1.23;;;19.80;86.00;;;;;;5107115;28;20039;-91
2024/04/07 11:23:15;;;;;;;6.22;1.15;;;19.80;85.10;;;;;;5089618;28;20054;-92
2024/04/07 11:25:43;;;;;;;4.30;1.08;;;20.00;81.80;;;;;;5110043;27;20490;-93
2024/04/07 11:28:10;;;;;;;5.70;1.20;;;19.90;83.60;;;;;;5092790;27;20059;-92
2024/04/07 11:30:45;;;;;;;5.90;1.08;;;19.80;83.60;;;;;;5092490;27;20047;-92
2024/04/07 11:33:11;;;;;;;5.28;1.05;;;19.80;81.50;;;;;;5109207;28;20050;-93
2024/04/07 11:35:44;;;;;;;6.68;1.27;;;19.70;79.60;;;;;;5124188;28;20031;-93
2024/04/07 11:38:12;;;;;;;4.60;0.90;;;19.70;80.60;;;;;;5126104;28;20043;-92
2024/04/07 11:40:38;;;;;;;6.60;1.40;;;19.80;79.00;;;;;;5090681;28;20043;-92
2024/04/07 11:43:04;;;;;;;4.45;1.20;;;19.90;78.30;;;;;;5109493;28;20159;-93
2024/04/07 11:45:30;;;;;;;4.30;1.00;;;20.00;78.50;;;;;;5127851;28;20124;-92
2024/04/07 11:47:56;;;;;;;6.13;1.15;;;20.20;76.20;;;;;;5108102;28;20513;-90
2024/04/07 11:50:22;;;;;;;4.72;1.15;;;20.20;72.70;;;;;;5107632;28;20035;-92
2024/04/07 11:52:48;;;;;;;4.40;1.10;;;20.20;73.10;;;;;;5108309;28;20042;-92
2024/04/07 11:55:14;;;;;;;4.60;1.10;;;20.20;74.90;;;;;;5125646;28;20153;-92
2024/04/07 11:57:40;;;;;;;4.10;0.93;;;20.00;73.30;;;;;;5090447;28;20031;-92
2024/04/07 12:00:09;;;;;;;5.28;1.10;;;20.10;73.30;;;;;;5107654;28;20035;-93
2024/04/07 12:02:35;;;;;;;6.30;1.10;;;20.10;73.50;;;;;;5107068;28;20039;-91
2024/04/07 12:05:06;;;;;;;3.85;0.90;;;20.20;71.40;;;;;;5108475;28;20390;-92
2024/04/07 12:07:31;;;;;;;5.28;1.17;;;20.20;73.30;;;;;;5125929;28;20523;-92
2024/04/07 12:09:57;;;;;;;4.97;1.15;;;20.10;72.00;;;;;;5128109;28;20035;-92
2024/04/07 12:12:23;;;;;;;6.00;1.10;;;20.20;72.30;;;;;;5111393;28;20471;-92
2024/04/07 12:14:48;;;;;;;7.22;1.27;;;20.30;73.90;;;;;;5109783;28;20039;-92
2024/04/07 12:17:15;;;;;;;6.22;1.13;;;20.30;72.40;;;;;;5091521;28;20039;-92
2024/04/07 12:19:40;;;;;;;3.35;0.98;;;20.40;70.40;;;;;;5089410;28;20067;-93
2024/04/07 12:22:18;;;;;;;6.45;1.20;;;20.50;69.20;;;;;;5109996;28;20059;-91
2024/04/07 12:24:44;;;;;;;4.47;1.00;;;20.40;68.90;;;;;;5108421;27;20409;-91
2024/04/07 12:27:11;;;;;;;5.60;1.10;;;20.40;68.40;;;;;;5094266;27;20035;-92
2024/04/07 12:29:37;;;;;;;4.57;0.98;;;20.30;68.80;;;;;;5130151;27;20027;-92
2024/04/07 12:32:03;;;;;;;4.88;1.30;;;20.30;71.10;;;;;;5109054;27;20091;-92
2024/04/07 12:34:29;;;;;;;5.40;1.00;;;20.30;70.20;;;;;;5094419;27;20083;-93
2024/04/07 12:36:55;;;;;;;4.13;0.90;;;20.30;68.20;;;;;;5094348;27;20031;-92
2024/04/07 12:39:21;;;;;;;5.30;0.93;;;20.40;69.10;;;;;;5110053;27;20038;-92
2024/04/07 12:41:49;;;;;;;4.57;1.08;;;20.60;71.70;;;;;;5096563;27;20581;-93
2024/04/07 12:44:16;;;;;;;7.38;1.50;;;20.80;71.70;;;;;;5095813;27;20031;-92